TimeCDT,TemperatureF,Dew PointF,Humidity,Sea Level PressureIn,VisibilityMPH,Wind Direction,Wind SpeedMPH,Gust SpeedMPH,PrecipitationIn,Events,Conditions,WindDirDegrees,DateUTC
12:23 AM,33.8,30.2,87,29.69,4.0,North,17.3,-,0.00,Rain,Light Freezing Rain,360,2013-03-11 05:23:00
12:53 AM,32.0,30.9,96,29.72,3.0,North,18.4,-,0.00,Rain,Light Freezing Rain,360,2013-03-11 05:53:00
1:07 AM,32.0,30.2,93,29.69,3.0,North,18.4,-,0.00,,Overcast,360,2013-03-11 06:07:00
1:19 AM,32.0,30.2,93,29.69,2.0,North,18.4,-,0.00,Snow,Light Snow,350,2013-03-11 06:19:00
1:26 AM,32.0,30.2,93,29.69,1.5,North,18.4,-,0.00,Snow,Light Snow,350,2013-03-11 06:26:00
1:53 AM,32.0,30.9,96,29.72,1.5,North,17.3,-,0.01,Snow,Light Snow,350,2013-03-11 06:53:00
2:11 AM,32.0,30.2,93,29.69,2.0,North,18.4,-,0.00,Snow,Light Snow,350,2013-03-11 07:11:00
2:23 AM,32.0,30.2,93,29.68,4.0,North,18.4,-,0.00,Snow,Light Snow,350,2013-03-11 07:23:00
2:53 AM,32.0,30.0,92,29.71,7.0,North,19.6,-,0.00,,Overcast,350,2013-03-11 07:53:00
3:15 AM,30.2,30.2,100,29.68,7.0,North,18.4,-,N/A,,Overcast,350,2013-03-11 08:15:00
3:53 AM,30.9,28.9,92,29.70,10.0,North,24.2,27.6,N/A,,Overcast,350,2013-03-11 08:53:00
4:53 AM,30.9,28.9,92,29.70,3.0,NNW,20.7,26.5,0.00,Snow,Light Snow,340,2013-03-11 09:53:00
5:20 AM,30.2,28.4,93,29.67,7.0,North,23.0,-,0.00,Snow,Light Snow,350,2013-03-11 10:20:00
5:53 AM,30.0,28.0,92,29.71,10.0,NNW,19.6,-,0.00,,Overcast,340,2013-03-11 10:53:00
6:53 AM,30.0,28.0,92,29.73,2.5,NNW,16.1,24.2,0.00,Snow,Light Snow,340,2013-03-11 11:53:00
7:00 AM,30.2,28.4,93,29.71,2.5,NNW,17.3,-,0.00,Snow,Light Snow,340,2013-03-11 12:00:00
7:10 AM,28.4,28.4,100,29.71,3.0,NNW,16.1,-,0.00,Snow,Light Snow,340,2013-03-11 12:10:00
7:23 AM,28.4,28.4,100,29.71,3.0,NNW,17.3,-,0.00,Snow,Light Snow,340,2013-03-11 12:23:00
7:34 AM,28.4,26.6,93,29.71,2.5,NNW,18.4,-,0.00,Snow,Light Snow,340,2013-03-11 12:34:00
7:43 AM,28.4,28.4,100,29.72,1.8,NNW,16.1,-,0.00,Snow,Light Snow,340,2013-03-11 12:43:00
7:53 AM,28.9,27.0,92,29.75,1.8,NNW,15.0,-,0.00,Snow,Light Snow,340,2013-03-11 12:53:00
8:00 AM,28.4,26.6,93,29.72,2.0,NNW,15.0,-,0.00,Snow,Light Snow,330,2013-03-11 13:00:00
8:21 AM,28.4,26.6,93,29.72,3.0,NNW,15.0,-,0.00,Snow,Light Snow,330,2013-03-11 13:21:00
8:28 AM,28.4,26.6,93,29.72,2.5,NNW,18.4,-,0.00,Snow,Light Snow,330,2013-03-11 13:28:00
8:49 AM,28.4,26.6,93,29.72,3.0,NNW,17.3,-,0.00,Snow,Light Snow,330,2013-03-11 13:49:00
8:53 AM,28.9,27.0,92,29.76,3.0,NNW,16.1,-,0.00,Snow,Light Snow,330,2013-03-11 13:53:00
9:01 AM,28.4,26.6,93,29.72,1.8,NNW,15.0,-,0.00,Snow,Light Snow,330,2013-03-11 14:01:00
9:12 AM,28.4,26.6,93,29.73,2.0,NW,16.1,-,0.00,Snow,Light Snow,320,2013-03-11 14:12:00
9:22 AM,28.4,26.6,93,29.73,5.0,NW,16.1,-,0.00,Snow,Light Snow,320,2013-03-11 14:22:00
9:37 AM,28.4,26.6,93,29.73,4.0,NW,18.4,-,0.00,Snow,Light Snow,320,2013-03-11 14:37:00
9:53 AM,28.9,26.1,89,29.76,5.0,NW,18.4,-,0.00,,Overcast,320,2013-03-11 14:53:00
10:16 AM,28.4,26.6,93,29.73,2.5,NW,20.7,-,0.00,Snow,Light Snow,320,2013-03-11 15:16:00
10:34 AM,28.4,24.8,86,29.73,5.0,NW,17.3,-,0.00,Snow,Light Snow,320,2013-03-11 15:34:00
10:53 AM,28.9,25.0,85,29.76,10.0,NW,19.6,-,0.00,,Overcast,320,2013-03-11 15:53:00
11:08 AM,28.4,24.8,86,29.73,10.0,NW,18.4,-,N/A,,Overcast,310,2013-03-11 16:08:00
11:53 AM,28.0,25.0,88,29.77,8.0,NW,19.6,-,N/A,,Overcast,320,2013-03-11 16:53:00
12:53 PM,28.0,24.1,85,29.78,10.0,NW,20.7,-,N/A,,Overcast,320,2013-03-11 17:53:00
1:53 PM,28.0,24.1,85,29.79,10.0,NW,19.6,-,N/A,,Overcast,310,2013-03-11 18:53:00
2:53 PM,28.0,24.1,85,29.79,10.0,WNW,20.7,-,N/A,,Overcast,290,2013-03-11 19:53:00
3:53 PM,28.0,23.0,81,29.81,10.0,NW,23.0,-,N/A,,Overcast,310,2013-03-11 20:53:00
4:53 PM,28.0,21.0,75,29.83,10.0,WNW,24.2,-,N/A,,Overcast,300,2013-03-11 21:53:00
5:53 PM,27.0,21.0,78,29.85,10.0,WNW,19.6,-,N/A,,Overcast,300,2013-03-11 22:53:00
6:53 PM,27.0,19.9,75,29.86,10.0,WNW,20.7,-,N/A,,Overcast,290,2013-03-11 23:53:00
7:53 PM,26.1,19.9,78,29.88,10.0,West,10.4,-,N/A,,Mostly Cloudy,280,2013-03-12 00:53:00
8:53 PM,25.0,19.9,81,29.91,10.0,West,11.5,-,N/A,,Mostly Cloudy,280,2013-03-12 01:53:00
9:53 PM,25.0,19.9,81,29.93,10.0,West,11.5,-,N/A,,Overcast,280,2013-03-12 02:53:00
11:53 PM,24.1,19.9,84,29.94,10.0,West,9.2,-,N/A,,Clear,280,2013-03-12 04:53:00